Time;durP1;ratioP1;P1;durP2;ratioP2;P2;SDS_P1;SDS_P2;PMS_P1;PMS_P2;Temp;Humidity;BMP_temperature;BMP_pressure;BME280_temperature;BME280_humidity;BME280_pressure;Samples;Min_cycle;Max_cycle;Signal;HPM_P1;HPM_P2
2021/01/20 00:00:48;;;;;;;10.65;7.40;;;7.30;91.60;;;;;;2076100;28;20033;-80
2021/01/20 00:01:48;;;;;;;9.95;6.90;;;7.30;91.50;;;;;;2081977;28;20049;-80
2021/01/20 00:02:49;;;;;;;10.10;6.40;;;7.30;91.80;;;;;;2080852;28;20908;-82
2021/01/20 00:03:50;;;;;;;12.38;6.82;;;7.30;91.50;;;;;;2080345;28;20504;-82
2021/01/20 00:04:50;;;;;;;9.90;6.75;;;7.30;91.50;;;;;;2073249;28;20392;-81
2021/01/20 00:05:51;;;;;;;11.77;7.60;;;7.30;91.50;;;;;;2085387;28;20486;-81
2021/01/20 00:06:51;;;;;;;10.13;6.80;;;7.30;91.50;;;;;;2087197;28;20025;-81
2021/01/20 00:07:52;;;;;;;11.70;7.53;;;7.30;91.50;;;;;;2088030;28;20098;-80
2021/01/20 00:08:53;;;;;;;11.30;7.65;;;7.30;91.50;;;;;;2071816;28;20029;-81
2021/01/20 00:09:53;;;;;;;11.40;7.28;;;7.30;91.50;;;;;;2071059;28;20411;-80
2021/01/20 00:10:54;;;;;;;13.43;7.90;;;7.30;91.50;;;;;;2081626;28;20033;-81
2021/01/20 00:11:55;;;;;;;11.50;7.47;;;7.30;91.40;;;;;;2081640;28;20028;-81
2021/01/20 00:12:55;;;;;;;11.30;7.45;;;7.30;91.40;;;;;;2080194;28;20471;-81
2021/01/20 00:13:56;;;;;;;12.32;7.45;;;7.30;91.40;;;;;;2082519;28;20136;-81
2021/01/20 00:14:57;;;;;;;11.02;7.10;;;7.30;91.40;;;;;;2087188;28;20113;-81
2021/01/20 00:15:57;;;;;;;11.13;7.63;;;7.20;91.30;;;;;;2080400;28;20029;-81
2021/01/20 00:16:58;;;;;;;11.70;7.22;;;7.30;91.30;;;;;;2080747;28;20772;-81
2021/01/20 00:17:58;;;;;;;12.88;7.60;;;7.30;91.30;;;;;;2081843;28;20033;-81
2021/01/20 00:18:59;;;;;;;11.63;7.25;;;7.30;91.30;;;;;;2083339;28;20552;-81
2021/01/20 00:20:00;;;;;;;10.55;6.75;;;7.30;91.30;;;;;;2082387;28;20037;-81
2021/01/20 00:21:00;;;;;;;9.65;6.65;;;7.30;91.30;;;;;;2077567;28;20504;-81
2021/01/20 00:22:02;;;;;;;10.68;7.00;;;7.30;91.30;;;;;;2074306;28;20061;-81
2021/01/20 00:23:02;;;;;;;11.13;7.10;;;7.30;91.30;;;;;;2082418;28;20147;-80
2021/01/20 00:24:04;;;;;;;9.25;6.57;;;7.30;91.30;;;;;;2081974;28;20041;-81
2021/01/20 00:25:05;;;;;;;9.82;6.47;;;7.30;91.30;;;;;;2077086;28;20024;-80
2021/01/20 00:26:06;;;;;;;10.52;6.35;;;7.30;91.30;;;;;;2073890;28;20048;-81
2021/01/20 00:27:08;;;;;;;9.90;6.32;;;7.30;91.30;;;;;;2069978;28;20026;-81
2021/01/20 00:28:08;;;;;;;11.13;6.95;;;7.30;91.30;;;;;;2083816;28;20063;-81
2021/01/20 00:29:09;;;;;;;10.80;6.53;;;7.20;91.30;;;;;;2095415;28;20040;-81
2021/01/20 00:30:10;;;;;;;11.38;6.13;;;7.20;91.30;;;;;;2089072;28;20044;-81
2021/01/20 00:31:11;;;;;;;10.77;6.55;;;7.20;91.40;;;;;;2073945;28;20033;-81
2021/01/20 00:32:12;;;;;;;10.38;6.60;;;7.20;91.40;;;;;;2078934;28;20187;-82
2021/01/20 00:33:13;;;;;;;9.45;6.50;;;7.10;91.40;;;;;;2073587;28;20403;-81
2021/01/20 00:34:13;;;;;;;10.65;6.60;;;7.10;91.40;;;;;;2066608;28;20033;-81
2021/01/20 00:35:14;;;;;;;12.23;7.40;;;7.10;91.40;;;;;;2083703;28;20246;-81
2021/01/20 00:36:15;;;;;;;11.88;6.97;;;7.10;91.50;;;;;;2078829;28;20060;-81
2021/01/20 00:37:15;;;;;;;11.38;7.07;;;7.10;91.50;;;;;;2080563;28;20103;-81
2021/01/20 00:38:19;;;;;;;9.77;6.65;;;7.10;91.80;;;;;;2082644;28;20755;-81
2021/01/20 00:39:20;;;;;;;9.48;6.13;;;7.00;91.50;;;;;;2087536;28;20090;-81
2021/01/20 00:40:20;;;;;;;10.68;7.20;;;7.00;91.50;;;;;;2085704;28;20171;-81
2021/01/20 00:41:21;;;;;;;10.82;7.38;;;7.00;91.60;;;;;;2078810;28;20491;-81
2021/01/20 00:42:22;;;;;;;11.32;6.60;;;7.00;91.60;;;;;;2080765;28;20415;-81
2021/01/20 00:43:23;;;;;;;9.93;6.75;;;7.00;91.60;;;;;;2080222;28;20690;-81
2021/01/20 00:44:23;;;;;;;9.48;6.40;;;7.00;91.60;;;;;;2080092;28;20028;-80
2021/01/20 00:45:24;;;;;;;11.07;6.38;;;7.00;91.60;;;;;;2096026;28;20024;-81
2021/01/20 00:46:25;;;;;;;8.95;6.30;;;7.00;91.60;;;;;;2080854;28;20104;-81
2021/01/20 00:47:25;;;;;;;8.75;6.35;;;7.00;91.60;;;;;;2077671;28;20026;-81
2021/01/20 00:48:26;;;;;;;11.18;6.18;;;7.00;91.60;;;;;;2080888;28;20040;-81
2021/01/20 00:49:26;;;;;;;9.88;6.75;;;7.00;91.60;;;;;;2086582;28;20029;-80
2021/01/20 00:50:27;;;;;;;10.25;6.60;;;6.90;91.60;;;;;;2084685;28;20115;-81
2021/01/20 00:51:28;;;;;;;11.13;6.63;;;6.90;91.60;;;;;;2069427;28;20025;-81
2021/01/20 00:52:28;;;;;;;11.15;7.05;;;6.90;91.60;;;;;;2074533;28;20131;-81
2021/01/20 00:53:29;;;;;;;10.80;6.93;;;7.00;91.60;;;;;;2082317;28;20033;-81
2021/01/20 00:54:29;;;;;;;10.70;6.65;;;6.90;91.60;;;;;;2087622;28;20116;-82
2021/01/20 00:55:30;;;;;;;10.07;6.70;;;6.90;91.60;;;;;;2083294;28;20522;-81
2021/01/20 00:56:31;;;;;;;11.75;6.53;;;6.90;91.60;;;;;;2072874;28;20092;-81
2021/01/20 00:57:31;;;;;;;9.23;6.50;;;6.90;91.60;;;;;;2082195;28;20044;-81
2021/01/20 00:58:32;;;;;;;11.10;6.32;;;6.90;91.50;;;;;;2082247;28;20033;-82
2021/01/20 00:59:33;;;;;;;10.57;6.65;;;6.90;91.80;;;;;;2081449;28;20037;-82
2021/01/20 01:00:33;;;;;;;11.98;7.15;;;6.90;91.50;;;;;;2082239;28;20037;-81
2021/01/20 01:01:35;;;;;;;9.80;6.05;;;6.90;91.50;;;;;;2080680;28;20686;-81
2021/01/20 01:02:36;;;;;;;10.00;6.78;;;6.90;91.50;;;;;;2082379;28;20242;-82
2021/01/20 01:03:36;;;;;;;9.05;6.43;;;6.90;91.50;;;;;;2081642;28;20705;-81
2021/01/20 01:04:37;;;;;;;8.98;6.13;;;6.90;91.50;;;;;;2090987;28;20025;-82
2021/01/20 01:05:38;;;;;;;10.35;6.03;;;6.90;91.50;;;;;;2095764;28;20127;-82
2021/01/20 01:06:38;;;;;;;9.10;6.20;;;6.90;91.50;;;;;;2078856;28;20032;-82
2021/01/20 01:07:42;;;;;;;9.55;6.30;;;6.90;91.50;;;;;;2078178;28;20383;-81
2021/01/20 01:08:43;;;;;;;8.80;5.90;;;6.90;91.70;;;;;;2080328;28;20120;-82
2021/01/20 01:09:43;;;;;;;7.65;5.22;;;6.90;91.40;;;;;;2077652;28;20484;-80
2021/01/20 01:10:44;;;;;;;9.27;5.45;;;6.90;91.40;;;;;;2079644;28;20124;-80
2021/01/20 01:11:45;;;;;;;8.10;5.10;;;7.00;91.40;;;;;;2079680;28;20025;-82
2021/01/20 01:12:45;;;;;;;8.93;5.18;;;7.00;91.40;;;;;;2082190;28;20115;-81
2021/01/20 01:13:46;;;;;;;8.73;5.40;;;7.00;91.40;;;;;;2082338;28;20033;-81
2021/01/20 01:14:47;;;;;;;8.75;5.40;;;6.90;91.40;;;;;;2079589;28;20128;-82
2021/01/20 01:15:47;;;;;;;9.75;5.13;;;6.90;91.40;;;;;;2079014;28;20026;-81
2021/01/20 01:16:48;;;;;;;7.22;5.03;;;7.00;91.40;;;;;;2086576;28;20663;-81
2021/01/20 01:17:49;;;;;;;8.82;5.30;;;6.90;91.40;;;;;;2082695;28;20168;-82
2021/01/20 01:18:49;;;;;;;8.57;5.55;;;7.00;91.40;;;;;;2083071;28;20036;-81
2021/01/20 01:19:50;;;;;;;8.57;5.18;;;6.90;91.30;;;;;;2090145;28;20033;-82
2021/01/20 01:20:51;;;;;;;8.25;5.35;;;7.00;91.30;;;;;;2086334;28;20041;-81
2021/01/20 01:21:52;;;;;;;9.35;5.53;;;6.90;91.30;;;;;;2066874;28;20026;-82
2021/01/20 01:22:57;;;;;;;8.02;5.13;;;6.90;91.30;;;;;;2065747;28;20461;-81
2021/01/20 01:23:57;;;;;;;7.90;4.97;;;7.00;91.30;;;;;;2073535;28;20079;-81
2021/01/20 01:25:01;;;;;;;8.50;5.00;;;7.00;91.30;;;;;;2080266;28;20549;-82
2021/01/20 01:26:02;;;;;;;8.23;4.70;;;6.90;91.20;;;;;;2079327;28;20032;-82
2021/01/20 01:27:02;;;;;;;8.63;5.28;;;7.00;91.20;;;;;;2079583;28;20696;-82
2021/01/20 01:28:14;;;;;;;8.10;4.90;;;7.00;91.20;;;;;;2084415;28;20033;-81
2021/01/20 01:29:14;;;;;;;7.90;5.00;;;7.00;91.20;;;;;;2085210;28;20036;-81
2021/01/20 01:30:15;;;;;;;7.88;5.13;;;7.00;91.20;;;;;;2078226;28;20112;-81
2021/01/20 01:31:16;;;;;;;10.18;5.35;;;7.00;91.20;;;;;;2078925;28;20041;-81
2021/01/20 01:32:16;;;;;;;9.88;4.97;;;7.00;91.10;;;;;;2081764;28;20437;-82
2021/01/20 01:33:17;;;;;;;10.45;5.30;;;7.00;91.10;;;;;;2074293;28;20045;-81
2021/01/20 01:34:18;;;;;;;8.13;5.00;;;7.00;91.10;;;;;;2078588;28;20148;-81
2021/01/20 01:35:18;;;;;;;9.38;5.50;;;7.00;91.10;;;;;;2074456;28;20123;-81
2021/01/20 01:36:19;;;;;;;9.80;5.00;;;7.00;91.10;;;;;;2066321;28;20022;-81
2021/01/20 01:37:20;;;;;;;9.90;5.25;;;7.00;91.10;;;;;;2081627;28;20037;-81
2021/01/20 01:38:20;;;;;;;8.60;4.63;;;7.00;91.10;;;;;;2077394;28;20675;-81
2021/01/20 01:39:21;;;;;;;8.25;5.18;;;7.00;91.10;;;;;;2080350;28;21545;-81
2021/01/20 01:40:21;;;;;;;8.50;5.10;;;7.00;91.00;;;;;;2068595;28;20025;-82
2021/01/20 01:41:22;;;;;;;10.75;5.60;;;7.00;91.00;;;;;;2074131;28;20037;-81
2021/01/20 01:42:29;;;;;;;7.90;5.07;;;7.00;90.90;;;;;;2088292;28;20123;-81
2021/01/20 01:43:29;;;;;;;9.93;5.22;;;7.00;90.90;;;;;;2086417;28;20044;-82
2021/01/20 01:44:31;;;;;;;9.30;4.85;;;7.00;90.90;;;;;;2078078;28;20075;-82
2021/01/20 01:45:31;;;;;;;7.97;4.68;;;7.00;90.90;;;;;;2081017;28;20037;-82
2021/01/20 01:46:32;;;;;;;8.00;4.57;;;7.00;90.90;;;;;;2082338;28;20490;-82
2021/01/20 01:47:33;;;;;;;9.23;4.85;;;7.00;90.90;;;;;;2083356;28;20637;-82
2021/01/20 01:48:33;;;;;;;8.52;4.70;;;7.00;90.90;;;;;;2078957;28;20190;-81
2021/01/20 01:49:34;;;;;;;9.48;4.80;;;7.00;90.80;;;;;;2084706;28;20437;-82
2021/01/20 01:50:35;;;;;;;9.48;4.65;;;7.00;90.80;;;;;;2074012;28;20098;-82
2021/01/20 01:51:35;;;;;;;8.40;4.72;;;7.00;90.90;;;;;;2083018;28;20033;-81
2021/01/20 01:52:37;;;;;;;8.23;5.10;;;7.00;90.90;;;;;;2094205;28;20044;-81
2021/01/20 01:53:38;;;;;;;8.75;4.85;;;7.00;90.80;;;;;;2083189;28;20036;-82
2021/01/20 01:54:40;;;;;;;6.25;4.18;;;7.00;90.80;;;;;;2074185;28;20042;-83
2021/01/20 01:55:41;;;;;;;8.23;4.53;;;7.00;90.80;;;;;;2089641;28;20084;-82
2021/01/20 01:56:42;;;;;;;7.65;4.93;;;7.00;91.00;;;;;;2094400;28;20477;-82
2021/01/20 01:57:43;;;;;;;6.45;4.45;;;7.00;90.80;;;;;;2078554;28;20045;-81
2021/01/20 01:58:47;;;;;;;7.95;4.38;;;7.00;90.80;;;;;;2082152;28;20029;-82
2021/01/20 01:59:48;;;;;;;6.90;4.25;;;7.00;90.80;;;;;;2090995;28;20028;-82
2021/01/20 02:00:50;;;;;;;8.27;5.00;;;7.00;90.80;;;;;;2087786;28;20043;-82
2021/01/20 02:01:51;;;;;;;8.50;4.78;;;7.00;90.80;;;;;;2089126;28;20092;-82
2021/01/20 02:02:52;;;;;;;8.38;5.25;;;7.00;90.80;;;;;;2094251;28;20027;-82
2021/01/20 02:03:53;;;;;;;8.88;4.85;;;7.00;90.80;;;;;;2079727;28;20036;-81
2021/01/20 02:04:53;;;;;;;8.40;4.70;;;7.00;90.80;;;;;;2079153;28;20025;-82
2021/01/20 02:05:54;;;;;;;7.28;4.57;;;7.00;90.80;;;;;;2073867;28;20032;-82
2021/01/20 02:06:56;;;;;;;9.27;5.03;;;7.00;90.80;;;;;;2074782;28;20030;-82
2021/01/20 02:07:57;;;;;;;8.02;4.78;;;7.00;90.80;;;;;;2079160;28;20045;-82
2021/01/20 02:08:59;;;;;;;9.55;5.20;;;7.00;90.80;;;;;;2082022;28;20104;-81
2021/01/20 02:10:02;;;;;;;8.48;4.50;;;7.00;90.90;;;;;;2087605;28;20036;-81
2021/01/20 02:11:27;;;;;;;9.20;4.85;;;7.00;90.80;;;;;;2088881;28;20445;-81
2021/01/20 02:12:42;;;;;;;8.40;4.72;;;7.00;90.80;;;;;;2074626;28;20048;-81
2021/01/20 02:14:09;;;;;;;8.15;4.88;;;7.00;90.80;;;;;;2078425;28;20108;-82
2021/01/20 02:15:40;;;;;;;7.85;4.05;;;7.00;90.80;;;;;;2078093;28;20033;-81
2021/01/20 02:16:51;;;;;;;10.20;4.57;;;7.00;90.80;;;;;;2080020;28;20119;-82
2021/01/20 02:17:56;;;;;;;;;;;6.90;90.80;;;;;;2078659;28;20037;-82
2021/01/20 02:19:00;;;;;;;7.07;4.00;;;6.90;90.80;;;;;;2078401;28;20008;-82
2021/01/20 02:20:33;;;;;;;7.82;4.13;;;6.90;90.80;;;;;;2079997;28;20080;-81
2021/01/20 02:21:33;;;;;;;7.18;4.10;;;6.90;90.80;;;;;;2079906;28;20075;-81
2021/01/20 02:22:48;;;;;;;7.60;4.47;;;6.90;90.80;;;;;;2078240;28;20541;-81
2021/01/20 02:23:50;;;;;;;7.53;4.55;;;6.90;90.90;;;;;;2080559;28;20029;-81
2021/01/20 02:25:10;;;;;;;8.13;4.20;;;6.90;90.80;;;;;;2079382;28;20175;-81
2021/01/20 02:26:37;;;;;;;8.45;4.25;;;6.90;90.90;;;;;;2088053;28;20123;-81
2021/01/20 02:28:07;;;;;;;6.07;3.90;;;6.90;90.90;;;;;;2075288;28;20287;-81
2021/01/20 02:29:30;;;;;;;7.18;3.75;;;6.90;90.90;;;;;;2071038;28;20029;-81
2021/01/20 02:30:31;;;;;;;9.60;4.30;;;6.90;90.90;;;;;;2082402;28;20043;-82
2021/01/20 02:31:32;;;;;;;6.82;3.60;;;6.90;90.90;;;;;;2086811;28;20029;-82
2021/01/20 02:32:35;;;;;;;7.03;4.00;;;6.90;91.00;;;;;;2083525;28;20025;-82
2021/01/20 02:33:38;;;;;;;6.30;3.80;;;6.90;91.00;;;;;;2088891;28;20445;-82
2021/01/20 02:34:40;;;;;;;9.30;4.43;;;6.80;91.00;;;;;;2094088;28;20040;-81
2021/01/20 02:35:42;;;;;;;7.75;4.30;;;6.90;91.00;;;;;;2082677;28;20083;-81
2021/01/20 02:36:45;;;;;;;10.15;4.50;;;6.90;91.00;;;;;;2082162;28;20033;-81
2021/01/20 02:37:46;;;;;;;8.50;4.38;;;6.80;91.00;;;;;;2094172;28;20032;-81
2021/01/20 02:38:48;;;;;;;7.03;4.03;;;6.80;91.00;;;;;;2093584;28;20047;-81
2021/01/20 02:39:49;;;;;;;8.40;4.30;;;6.90;91.00;;;;;;2087277;28;20060;-82
2021/01/20 02:40:50;;;;;;;7.95;4.57;;;6.90;91.00;;;;;;2080183;28;20022;-81
2021/01/20 02:41:51;;;;;;;8.95;4.45;;;6.90;91.00;;;;;;2078727;28;20072;-81
2021/01/20 02:42:51;;;;;;;9.65;4.70;;;6.90;91.00;;;;;;2098807;28;20024;-81
2021/01/20 02:43:52;;;;;;;6.80;4.18;;;6.90;91.00;;;;;;2081673;28;20029;-81
2021/01/20 02:44:53;;;;;;;7.28;4.35;;;6.90;91.00;;;;;;2074102;28;20021;-81
2021/01/20 02:45:53;;;;;;;10.23;4.40;;;6.90;91.10;;;;;;2079071;28;20033;-81
2021/01/20 02:46:54;;;;;;;6.93;4.40;;;6.90;91.10;;;;;;2077551;28;20100;-81
2021/01/20 02:47:55;;;;;;;9.35;4.70;;;6.90;91.10;;;;;;2079461;28;20502;-81
2021/01/20 02:48:58;;;;;;;7.85;4.88;;;6.90;91.10;;;;;;2079174;28;20044;-81
2021/01/20 02:49:59;;;;;;;7.65;4.60;;;6.90;91.10;;;;;;2079248;28;20036;-81
2021/01/20 02:51:00;;;;;;;7.55;4.47;;;6.90;91.10;;;;;;2093123;28;20020;-81
2021/01/20 02:52:08;;;;;;;7.70;4.60;;;6.90;91.10;;;;;;2098112;28;20039;-81
2021/01/20 02:53:18;;;;;;;7.78;4.47;;;6.90;91.10;;;;;;2079392;28;20044;-81
2021/01/20 02:54:21;;;;;;;12.52;4.63;;;6.90;91.10;;;;;;2077372;28;20483;-81
2021/01/20 02:55:25;;;;;;;6.63;4.20;;;6.90;91.20;;;;;;2079250;28;20049;-81
2021/01/20 02:56:26;;;;;;;8.82;4.60;;;6.90;91.10;;;;;;2078895;28;20036;-81
2021/01/20 02:57:29;;;;;;;7.28;4.25;;;6.90;91.10;;;;;;2077513;28;20041;-81
2021/01/20 02:58:32;;;;;;;9.15;4.47;;;6.90;91.20;;;;;;2078888;28;20506;-81
2021/01/20 02:59:36;;;;;;;7.07;4.57;;;6.90;91.10;;;;;;2080296;28;20033;-81
2021/01/20 03:00:39;;;;;;;6.47;4.10;;;6.90;91.10;;;;;;2080785;28;20026;-81
2021/01/20 03:01:45;;;;;;;6.93;4.30;;;6.90;91.10;;;;;;2078749;28;20152;-81
2021/01/20 03:02:52;;;;;;;7.55;3.95;;;6.90;91.10;;;;;;2079550;28;20642;-81
2021/01/20 03:03:55;;;;;;;7.90;4.70;;;6.90;91.10;;;;;;2079167;28;20033;-81
2021/01/20 03:04:59;;;;;;;7.25;4.25;;;6.90;91.10;;;;;;2079578;28;20040;-82
2021/01/20 03:06:01;;;;;;;7.03;4.38;;;6.90;91.10;;;;;;2086603;28;20021;-82
2021/01/20 03:07:03;;;;;;;7.75;4.80;;;7.00;91.10;;;;;;2086470;28;20470;-81
2021/01/20 03:08:04;;;;;;;7.88;4.35;;;7.00;91.10;;;;;;2080545;28;21113;-81
2021/01/20 03:09:05;;;;;;;8.55;5.38;;;7.00;91.10;;;;;;2081070;28;20047;-82
2021/01/20 03:10:09;;;;;;;8.48;4.63;;;7.00;91.10;;;;;;2082267;28;20055;-80
2021/01/20 03:11:09;;;;;;;6.93;4.47;;;7.00;91.10;;;;;;2082825;28;20033;-82
2021/01/20 03:12:10;;;;;;;7.82;4.50;;;7.00;91.10;;;;;;2078885;28;20038;-80
2021/01/20 03:13:14;;;;;;;7.93;4.85;;;7.00;91.10;;;;;;2073877;28;20053;-82
2021/01/20 03:14:16;;;;;;;6.57;4.50;;;7.00;91.10;;;;;;2080881;28;20036;-81
2021/01/20 03:15:34;;;;;;;8.13;4.75;;;7.00;91.10;;;;;;2086314;28;20029;-81
2021/01/20 03:16:35;;;;;;;6.72;4.32;;;7.00;91.10;;;;;;2083608;28;20028;-82
2021/01/20 03:17:35;;;;;;;9.93;4.68;;;7.00;91.10;;;;;;2078128;28;20055;-81
2021/01/20 03:18:36;;;;;;;10.52;4.80;;;7.00;91.10;;;;;;2087360;28;20017;-81
2021/01/20 03:19:36;;;;;;;9.07;4.40;;;7.00;91.10;;;;;;2086009;28;20033;-82
2021/01/20 03:20:37;;;;;;;9.90;4.80;;;7.00;91.10;;;;;;2072232;28;20056;-81
2021/01/20 03:21:38;;;;;;;10.02;4.82;;;7.00;91.10;;;;;;2072299;28;20033;-81
2021/01/20 03:22:39;;;;;;;7.57;4.60;;;7.00;91.10;;;;;;2078453;28;20586;-81
2021/01/20 03:23:39;;;;;;;7.20;4.70;;;7.00;91.10;;;;;;2081831;28;20036;-81
2021/01/20 03:24:40;;;;;;;7.03;4.45;;;7.00;91.10;;;;;;2090238;28;20037;-81
2021/01/20 03:25:40;;;;;;;7.32;4.63;;;7.00;91.10;;;;;;2094371;28;20093;-81
2021/01/20 03:26:41;;;;;;;7.78;4.13;;;7.10;91.20;;;;;;2082551;28;20029;-81
2021/01/20 03:27:42;;;;;;;7.55;4.72;;;7.10;91.20;;;;;;2073610;28;20700;-81
2021/01/20 03:28:42;;;;;;;7.03;4.93;;;7.10;91.20;;;;;;2075046;28;20125;-81
2021/01/20 03:29:43;;;;;;;6.80;4.43;;;7.10;91.20;;;;;;2082825;28;20124;-82
2021/01/20 03:30:43;;;;;;;7.78;4.63;;;7.10;91.20;;;;;;2074055;28;20451;-81
2021/01/20 03:31:44;;;;;;;8.23;4.47;;;7.10;91.20;;;;;;2075689;28;20537;-81
2021/01/20 03:32:45;;;;;;;6.88;4.03;;;7.10;91.20;;;;;;2082457;28;20117;-82
2021/01/20 03:33:46;;;;;;;6.50;4.30;;;7.10;91.20;;;;;;2073317;28;20048;-81
2021/01/20 03:34:49;;;;;;;6.53;4.28;;;7.10;91.20;;;;;;2080467;28;20029;-81
2021/01/20 03:35:49;;;;;;;8.13;4.25;;;7.10;91.20;;;;;;2091876;28;20036;-81
2021/01/20 03:36:50;;;;;;;7.72;4.13;;;7.10;91.20;;;;;;2083544;28;20026;-81
2021/01/20 03:37:51;;;;;;;7.15;4.28;;;7.10;91.20;;;;;;2083869;28;20033;-81
2021/01/20 03:38:51;;;;;;;6.53;4.13;;;7.10;91.20;;;;;;2084142;28;20465;-81
2021/01/20 03:39:52;;;;;;;9.95;4.40;;;7.10;91.20;;;;;;2085955;28;20025;-82
2021/01/20 03:40:53;;;;;;;8.07;4.50;;;7.10;91.30;;;;;;2080646;28;20467;-81
2021/01/20 03:41:55;;;;;;;7.28;4.32;;;7.10;91.20;;;;;;2077813;28;20492;-81
2021/01/20 03:42:55;;;;;;;7.15;4.15;;;7.10;91.30;;;;;;2079623;28;20475;-81
2021/01/20 03:43:56;;;;;;;7.50;4.05;;;7.10;91.30;;;;;;2087363;28;20028;-81
2021/01/20 03:44:56;;;;;;;7.03;4.10;;;7.00;91.30;;;;;;2094971;28;20021;-82
2021/01/20 03:45:57;;;;;;;6.03;3.75;;;7.00;91.20;;;;;;2085314;28;20049;-81
2021/01/20 03:46:58;;;;;;;7.80;4.20;;;7.10;91.30;;;;;;2099509;28;20032;-81
2021/01/20 03:47:58;;;;;;;6.93;4.00;;;7.10;91.30;;;;;;2099296;28;20068;-81
2021/01/20 03:48:59;;;;;;;5.63;3.47;;;7.10;91.30;;;;;;2083027;28;20467;-81
2021/01/20 03:50:00;;;;;;;7.30;3.53;;;7.00;91.20;;;;;;2095856;28;20727;-80
2021/01/20 03:51:01;;;;;;;6.15;3.75;;;7.10;91.30;;;;;;2090326;28;20088;-81
2021/01/20 03:52:05;;;;;;;5.15;3.20;;;7.10;91.30;;;;;;2082149;28;20029;-81
2021/01/20 03:53:05;;;;;;;5.78;3.40;;;7.10;91.30;;;;;;2078389;28;20062;-81
2021/01/20 03:54:06;;;;;;;5.72;3.50;;;7.10;91.30;;;;;;2077999;28;20037;-80
2021/01/20 03:55:07;;;;;;;6.05;3.63;;;7.10;91.30;;;;;;2081981;28;20052;-81
2021/01/20 03:56:08;;;;;;;6.28;3.90;;;7.10;91.20;;;;;;2071969;28;20127;-80
2021/01/20 03:57:08;;;;;;;6.45;3.40;;;7.10;91.20;;;;;;2070983;28;20610;-81
2021/01/20 03:58:09;;;;;;;6.55;3.10;;;7.10;91.20;;;;;;2082463;28;20396;-81
2021/01/20 03:59:10;;;;;;;6.80;3.83;;;7.10;91.20;;;;;;2081402;28;20041;-81
2021/01/20 04:00:11;;;;;;;6.45;3.60;;;7.10;91.20;;;;;;2082138;28;20052;-81
2021/01/20 04:01:12;;;;;;;5.90;3.38;;;7.10;91.20;;;;;;2079415;28;20044;-81
2021/01/20 04:02:12;;;;;;;6.43;3.90;;;7.10;91.10;;;;;;2086191;28;20112;-80
2021/01/20 04:03:13;;;;;;;7.38;3.95;;;7.10;91.10;;;;;;2089630;28;20033;-82
2021/01/20 04:04:13;;;;;;;7.38;3.75;;;7.10;91.10;;;;;;2091416;28;20040;-81
2021/01/20 04:05:14;;;;;;;8.60;4.03;;;7.20;91.10;;;;;;2093433;28;20517;-81
2021/01/20 04:06:15;;;;;;;5.95;3.70;;;7.20;91.10;;;;;;2086885;28;20060;-81
2021/01/20 04:07:15;;;;;;;7.85;4.10;;;7.20;91.00;;;;;;2077426;28;20037;-81
2021/01/20 04:08:16;;;;;;;6.72;3.78;;;7.20;91.00;;;;;;2084416;28;20103;-81
2021/01/20 04:09:17;;;;;;;6.35;3.28;;;7.20;91.00;;;;;;2082704;28;20617;-81
2021/01/20 04:10:17;;;;;;;6.40;3.42;;;7.20;91.00;;;;;;2075196;28;20033;-81
2021/01/20 04:11:19;;;;;;;6.97;3.38;;;7.20;91.00;;;;;;2073991;28;20521;-81
2021/01/20 04:12:20;;;;;;;5.75;3.25;;;7.20;91.00;;;;;;2079914;28;20121;-81
2021/01/20 04:13:23;;;;;;;5.40;3.22;;;7.20;90.90;;;;;;2083859;28;20046;-81
2021/01/20 04:14:23;;;;;;;5.55;3.15;;;7.30;91.00;;;;;;2082972;28;20159;-81
2021/01/20 04:15:24;;;;;;;6.25;3.33;;;7.30;90.90;;;;;;2081238;28;20040;-81
2021/01/20 04:16:25;;;;;;;5.50;3.47;;;7.30;90.90;;;;;;2088921;28;20027;-80
2021/01/20 04:17:25;;;;;;;7.47;3.25;;;7.30;90.90;;;;;;2088970;28;20120;-81
2021/01/20 04:18:26;;;;;;;5.85;3.10;;;7.30;90.90;;;;;;2080413;28;20041;-81
2021/01/20 04:19:26;;;;;;;6.03;3.20;;;7.30;90.90;;;;;;2083830;28;20439;-81
2021/01/20 04:20:27;;;;;;;5.00;2.90;;;7.30;90.90;;;;;;2080673;28;20423;-80
2021/01/20 04:21:28;;;;;;;7.82;3.15;;;7.30;90.80;;;;;;2088874;28;20055;-81
2021/01/20 04:22:28;;;;;;;6.85;3.28;;;7.30;90.80;;;;;;2080453;28;20526;-80
2021/01/20 04:23:29;;;;;;;6.00;2.85;;;7.30;90.80;;;;;;2084647;28;20387;-80
2021/01/20 04:24:30;;;;;;;5.13;2.83;;;7.40;90.80;;;;;;2075900;28;20033;-81
2021/01/20 04:25:31;;;;;;;4.90;2.92;;;7.40;90.80;;;;;;2083050;28;20030;-81
2021/01/20 04:26:31;;;;;;;4.97;2.90;;;7.40;90.80;;;;;;2080256;28;20091;-81
2021/01/20 04:27:32;;;;;;;6.93;3.22;;;7.40;90.70;;;;;;2069672;28;20037;-81
2021/01/20 04:28:34;;;;;;;6.95;3.70;;;7.40;90.70;;;;;;2068558;28;20160;-81
2021/01/20 04:29:34;;;;;;;4.72;2.88;;;7.40;90.70;;;;;;2070501;28;20120;-81
2021/01/20 04:30:35;;;;;;;6.43;3.20;;;7.40;90.70;;;;;;2082672;28;20394;-81
2021/01/20 04:31:39;;;;;;;6.00;3.20;;;7.40;90.70;;;;;;2076529;28;20037;-81
2021/01/20 04:32:39;;;;;;;6.47;3.10;;;7.40;90.60;;;;;;2074657;28;20033;-81
2021/01/20 04:33:40;;;;;;;4.93;3.00;;;7.40;90.60;;;;;;2079766;28;20069;-81
2021/01/20 04:34:40;;;;;;;6.38;3.28;;;7.40;90.60;;;;;;2079207;28;20400;-81
2021/01/20 04:35:41;;;;;;;6.97;3.15;;;7.40;90.60;;;;;;2095735;28;20033;-82
2021/01/20 04:36:42;;;;;;;7.07;3.22;;;7.40;90.60;;;;;;2080583;28;20017;-82
2021/01/20 04:37:42;;;;;;;6.43;3.47;;;7.40;90.60;;;;;;2074437;28;20128;-81
2021/01/20 04:38:43;;;;;;;6.05;2.88;;;7.40;90.50;;;;;;2082597;28;20037;-81
2021/01/20 04:39:44;;;;;;;5.13;2.85;;;7.40;90.50;;;;;;2080939;28;20063;-81
2021/01/20 04:40:44;;;;;;;6.13;3.10;;;7.50;90.50;;;;;;2088866;28;20048;-81
2021/01/20 04:41:45;;;;;;;6.38;3.35;;;7.50;90.50;;;;;;2081218;28;20407;-82
2021/01/20 04:42:46;;;;;;;6.38;3.28;;;7.50;90.80;;;;;;2082746;28;20044;-81
2021/01/20 04:43:47;;;;;;;4.90;2.95;;;7.50;90.50;;;;;;2080603;28;20033;-82
2021/01/20 04:44:48;;;;;;;6.40;3.25;;;7.50;90.70;;;;;;2075234;28;20117;-81
2021/01/20 04:45:49;;;;;;;4.47;2.78;;;7.40;90.50;;;;;;2081488;28;20030;-81
2021/01/20 04:46:51;;;;;;;5.30;2.92;;;7.50;90.50;;;;;;2080638;28;20036;-81
2021/01/20 04:47:53;;;;;;;5.90;3.40;;;7.50;90.50;;;;;;2078864;28;20053;-82
2021/01/20 04:48:55;;;;;;;4.97;2.72;;;7.50;90.50;;;;;;2073701;28;20041;-81
2021/01/20 04:49:58;;;;;;;5.82;3.10;;;7.50;90.50;;;;;;2082223;28;20025;-81
2021/01/20 04:51:03;;;;;;;5.82;3.08;;;7.50;90.50;;;;;;2080924;28;20290;-81
2021/01/20 04:52:09;;;;;;;5.40;3.30;;;7.50;90.40;;;;;;2080704;28;20411;-82
2021/01/20 04:53:11;;;;;;;6.25;3.20;;;7.50;90.40;;;;;;2080194;28;20036;-81
2021/01/20 04:54:12;;;;;;;7.20;3.20;;;7.50;90.50;;;;;;2079885;28;20491;-82
2021/01/20 04:55:14;;;;;;;5.82;3.00;;;7.50;90.50;;;;;;2081401;28;20033;-82
2021/01/20 04:56:16;;;;;;;6.72;3.53;;;7.50;90.40;;;;;;2074619;28;20076;-81
2021/01/20 04:57:17;;;;;;;6.32;3.10;;;7.50;90.40;;;;;;2091056;28;20135;-82
2021/01/20 04:58:19;;;;;;;5.07;2.92;;;7.50;90.40;;;;;;2085335;28;20267;-81
2021/01/20 04:59:19;;;;;;;7.15;3.25;;;7.50;90.40;;;;;;2080741;28;20091;-81
2021/01/20 05:00:24;;;;;;;6.20;2.97;;;7.50;90.50;;;;;;2075253;28;20511;-81
2021/01/20 05:01:25;;;;;;;5.85;2.92;;;7.50;90.50;;;;;;2074896;28;20575;-82
2021/01/20 05:02:28;;;;;;;5.47;2.95;;;7.50;90.50;;;;;;2080531;28;20053;-82
2021/01/20 05:03:30;;;;;;;4.75;2.60;;;7.50;90.80;;;;;;2079465;28;22969;-81
2021/01/20 05:04:31;;;;;;;5.43;3.00;;;7.50;90.50;;;;;;2095337;28;20082;-81
2021/01/20 05:05:32;;;;;;;6.20;3.38;;;7.50;90.60;;;;;;2095049;28;20040;-81
2021/01/20 05:06:33;;;;;;;6.15;3.20;;;7.50;90.60;;;;;;2088017;28;20429;-81
2021/01/20 05:07:34;;;;;;;5.72;2.70;;;7.50;90.50;;;;;;2087369;28;20033;-81
2021/01/20 05:08:35;;;;;;;5.43;2.90;;;7.50;90.50;;;;;;2077394;28;20051;-82
2021/01/20 05:09:36;;;;;;;4.25;2.60;;;7.50;90.50;;;;;;2079413;28;20079;-82
2021/01/20 05:10:36;;;;;;;5.53;2.92;;;7.50;90.50;;;;;;2071835;28;20034;-82
2021/01/20 05:11:40;;;;;;;5.50;3.00;;;7.50;90.50;;;;;;2081331;28;20461;-80
2021/01/20 05:12:43;;;;;;;5.35;2.90;;;7.50;90.50;;;;;;2078275;28;21395;-81
2021/01/20 05:13:44;;;;;;;7.20;3.20;;;7.50;90.50;;;;;;2079034;28;20083;-81
2021/01/20 05:14:45;;;;;;;5.78;3.22;;;7.50;90.50;;;;;;2096673;28;20059;-82
2021/01/20 05:15:46;;;;;;;5.90;3.35;;;7.50;90.50;;;;;;2073059;28;20068;-82
2021/01/20 05:16:49;;;;;;;5.20;2.83;;;7.60;90.50;;;;;;2059728;28;20033;-81
2021/01/20 05:18:04;;;;;;;5.43;3.22;;;7.60;90.50;;;;;;2082855;28;20049;-81
2021/01/20 05:19:05;;;;;;;6.45;3.20;;;7.60;90.40;;;;;;2083323;28;20427;-81
2021/01/20 05:20:24;;;;;;;5.20;2.90;;;7.60;90.40;;;;;;2090069;28;20061;-81
2021/01/20 05:21:25;;;;;;;5.10;2.78;;;7.60;90.40;;;;;;2079050;28;22532;-81
2021/01/20 05:22:30;;;;;;;5.18;2.90;;;7.60;90.40;;;;;;2075830;28;20060;-81
2021/01/20 05:23:31;;;;;;;4.97;2.50;;;7.60;90.40;;;;;;2094892;28;20041;-82
2021/01/20 05:24:34;;;;;;;5.78;3.03;;;7.60;90.40;;;;;;2073775;28;20192;-82
2021/01/20 05:25:37;;;;;;;5.38;3.25;;;7.60;90.30;;;;;;2068233;28;20033;-82
2021/01/20 05:26:44;;;;;;;6.05;3.13;;;7.60;90.30;;;;;;2086905;28;20021;-81
2021/01/20 05:27:45;;;;;;;5.00;2.80;;;7.60;90.30;;;;;;2080952;28;20146;-82